createdAt,value
2019-04-05T00:01:17.131Z,13.70
2019-04-05T00:03:45.714Z,13.87
2019-04-05T00:06:13.780Z,13.90
2019-04-05T00:08:41.781Z,13.73
2019-04-05T00:11:09.791Z,14.07
2019-04-05T00:13:37.768Z,13.83
2019-04-05T00:16:06.434Z,13.47
2019-04-05T00:18:34.424Z,13.97
2019-04-05T00:21:04.854Z,14.07
2019-04-05T00:23:35.276Z,13.23
2019-04-05T00:26:04.309Z,13.10
2019-04-05T00:28:32.306Z,13.27
2019-04-05T00:31:00.244Z,13.63
2019-04-05T00:33:28.423Z,13.37
2019-04-05T00:35:56.478Z,12.83
2019-04-05T00:38:24.394Z,12.90
2019-04-05T00:40:52.351Z,13.20
2019-04-05T00:43:20.267Z,12.93
2019-04-05T00:45:48.140Z,13.23
2019-04-05T00:48:16.125Z,12.47
2019-04-05T00:50:44.181Z,13.30
2019-04-05T00:53:12.806Z,12.23
2019-04-05T00:55:40.886Z,13.47
2019-04-05T00:58:08.817Z,13.00
2019-04-05T01:00:36.873Z,13.87
2019-04-05T01:03:04.964Z,13.00
2019-04-05T01:05:33.280Z,12.33
2019-04-05T01:08:01.472Z,12.27
2019-04-05T01:10:29.486Z,13.70
2019-04-05T01:12:57.593Z,13.00
2019-04-05T01:15:25.609Z,13.27
2019-04-05T01:17:54.199Z,13.10
2019-04-05T01:20:24.215Z,12.53
2019-04-05T01:22:53.295Z,12.57
2019-04-05T01:25:22.088Z,13.67
2019-04-05T01:27:50.688Z,13.23
2019-04-05T01:30:18.733Z,12.87
2019-04-05T01:32:47.391Z,13.10
2019-04-05T01:35:15.421Z,12.03
2019-04-05T01:37:43.843Z,12.93
2019-04-05T01:40:13.040Z,12.97
2019-04-05T01:42:41.716Z,13.07
2019-04-05T01:45:09.879Z,13.07
2019-04-05T01:47:38.058Z,13.23
2019-04-05T01:50:06.774Z,13.63
2019-04-05T01:52:35.462Z,13.17
2019-04-05T01:55:03.592Z,13.23
2019-04-05T01:57:31.560Z,12.93
2019-04-05T01:59:59.468Z,12.93
2019-04-05T02:02:27.544Z,12.40
2019-04-05T02:04:56.061Z,12.63
2019-04-05T02:07:24.115Z,13.43
2019-04-05T02:09:52.258Z,12.60
2019-04-05T02:12:20.368Z,13.00
2019-04-05T02:14:48.395Z,13.33
2019-04-05T02:17:16.481Z,13.37
2019-04-05T02:19:44.495Z,12.67
2019-04-05T02:22:12.574Z,14.00
2019-04-05T02:24:40.599Z,12.73
2019-04-05T02:27:09.382Z,12.30
2019-04-05T02:29:37.419Z,12.20
2019-04-05T02:32:05.539Z,11.83
2019-04-05T02:34:33.937Z,12.73
2019-04-05T02:37:02.085Z,12.13
2019-04-05T02:39:29.991Z,12.73
2019-04-05T02:41:58.375Z,13.33
2019-04-05T02:44:30.339Z,12.73
2019-04-05T02:46:59.115Z,12.87
2019-04-05T02:49:30.355Z,12.40
2019-04-05T02:52:00.113Z,11.73
2019-04-05T02:54:29.127Z,11.97
2019-04-05T02:56:58.375Z,12.60
2019-04-05T02:59:36.675Z,12.20
2019-04-05T03:02:05.680Z,12.10
2019-04-05T03:04:33.828Z,12.47
2019-04-05T03:07:03.234Z,12.20
2019-04-05T03:09:31.828Z,12.10
2019-04-05T03:12:00.266Z,12.83
2019-04-05T03:14:29.262Z,13.37
2019-04-05T03:16:58.486Z,13.07
2019-04-05T03:19:30.840Z,12.70
2019-04-05T03:22:03.975Z,12.57
2019-04-05T03:24:35.345Z,13.73
2019-04-05T03:27:12.467Z,12.57
2019-04-05T03:29:41.936Z,13.03
2019-04-05T03:32:10.001Z,11.93
2019-04-05T03:34:39.777Z,13.23
2019-04-05T03:37:07.855Z,14.17
2019-04-05T03:39:35.949Z,13.03
2019-04-05T03:42:04.239Z,13.77
2019-04-05T03:44:32.649Z,14.57
2019-04-05T03:47:01.001Z,18.90
2019-04-05T03:49:29.897Z,24.70
2019-04-05T03:51:57.948Z,22.63
2019-04-05T03:54:26.243Z,16.30
2019-04-05T03:56:54.346Z,15.10
2019-04-05T03:59:23.054Z,14.63
2019-04-05T04:01:51.399Z,14.80
2019-04-05T04:04:19.689Z,14.33
2019-04-05T04:06:48.112Z,15.33
2019-04-05T04:09:16.973Z,13.83
2019-04-05T04:11:45.028Z,14.77
2019-04-05T04:14:14.333Z,14.53
2019-04-05T04:16:42.886Z,14.80
2019-04-05T04:19:11.676Z,15.73
2019-04-05T04:22:23.985Z,15.87
2019-04-05T04:24:52.044Z,17.03
2019-04-05T04:27:20.684Z,17.13
2019-04-05T04:29:48.716Z,16.17
2019-04-05T04:32:26.585Z,15.60
2019-04-05T04:34:55.388Z,16.07
2019-04-05T04:37:23.489Z,15.13
2019-04-05T04:39:51.782Z,14.87
2019-04-05T04:42:20.185Z,15.77
2019-04-05T04:44:48.385Z,15.57
2019-04-05T04:47:26.340Z,15.27
2019-04-05T04:49:46.989Z,15.57
2019-04-05T04:52:16.009Z,15.83
2019-04-05T04:54:44.716Z,17.20
2019-04-05T04:57:12.749Z,15.47
2019-04-05T04:59:40.831Z,15.90
2019-04-05T05:02:09.037Z,16.17
2019-04-05T05:04:38.081Z,15.47
2019-04-05T05:07:06.313Z,15.67
2019-04-05T05:09:35.298Z,16.10
2019-04-05T05:12:03.565Z,15.90
2019-04-05T05:14:31.832Z,16.10
2019-04-05T05:17:00.082Z,17.10
2019-04-05T05:19:28.297Z,15.77
2019-04-05T05:21:56.305Z,15.67
2019-04-05T05:24:24.636Z,16.60
2019-04-05T05:26:53.751Z,15.47
2019-04-05T05:29:22.213Z,15.40
2019-04-05T05:31:50.199Z,16.60
2019-04-05T05:34:19.722Z,15.57
2019-04-05T05:36:48.318Z,15.73
2019-04-05T05:39:17.674Z,16.17
2019-04-05T05:41:46.257Z,16.27
2019-04-05T05:44:14.413Z,15.60
2019-04-05T05:46:42.382Z,16.87
2019-04-05T05:49:10.903Z,20.17
2019-04-05T05:51:39.675Z,15.37
2019-04-05T05:54:07.455Z,14.27
2019-04-05T05:56:36.050Z,14.67
2019-04-05T05:59:04.128Z,15.43
2019-04-05T06:01:32.105Z,15.43
2019-04-05T06:04:00.267Z,14.63
2019-04-05T06:06:28.260Z,15.40
2019-04-05T06:08:56.138Z,14.47
2019-04-05T06:11:24.087Z,14.70
2019-04-05T06:13:52.068Z,15.23
2019-04-05T06:16:20.382Z,14.93
2019-04-05T06:18:48.682Z,15.80
2019-04-05T06:21:16.742Z,16.53
2019-04-05T06:23:44.892Z,15.97
2019-04-05T06:26:12.732Z,16.53
2019-04-05T06:28:40.732Z,16.80
2019-04-05T06:31:08.753Z,16.10
2019-04-05T06:33:36.632Z,17.10
2019-04-05T06:36:04.726Z,15.40
2019-04-05T06:38:32.675Z,14.53
2019-04-05T06:41:00.636Z,15.93
2019-04-05T06:43:28.433Z,15.57
2019-04-05T06:45:56.548Z,13.90
2019-04-05T06:48:24.618Z,15.47
2019-04-05T06:50:53.350Z,14.67
2019-04-05T06:53:21.229Z,14.70
2019-04-05T06:55:49.186Z,16.20
2019-04-05T06:58:20.298Z,14.43
2019-04-05T07:00:57.014Z,14.33
2019-04-05T07:03:16.626Z,14.47
2019-04-05T07:05:44.638Z,14.90
2019-04-05T07:08:12.693Z,14.57
2019-04-05T07:10:40.629Z,15.13
2019-04-05T07:13:08.732Z,14.53
2019-04-05T07:15:36.756Z,14.27
2019-04-05T07:18:04.769Z,14.30
2019-04-05T07:20:32.821Z,14.20
2019-04-05T07:23:00.692Z,15.27
2019-04-05T07:25:29.517Z,14.33
2019-04-05T07:27:57.529Z,14.37
2019-04-05T07:30:28.656Z,14.23
2019-04-05T07:32:55.983Z,14.63
2019-04-05T07:35:33.285Z,13.77
2019-04-05T07:37:53.711Z,13.57
2019-04-05T07:40:21.688Z,13.83
2019-04-05T07:42:49.758Z,12.93
2019-04-05T07:45:17.737Z,12.50
2019-04-05T07:47:45.676Z,12.87
2019-04-05T07:50:13.665Z,12.60
2019-04-05T07:52:41.752Z,12.00
2019-04-05T07:55:09.843Z,12.60
2019-04-05T07:57:37.910Z,11.50
2019-04-05T08:00:07.509Z,12.93
2019-04-05T08:02:35.438Z,12.10
2019-04-05T08:05:06.202Z,12.47
2019-04-05T08:07:37.567Z,11.90
2019-04-05T08:10:06.871Z,12.70
2019-04-05T08:12:37.050Z,12.00
2019-04-05T08:15:05.534Z,12.10
2019-04-05T08:17:33.577Z,12.83
2019-04-05T08:20:02.368Z,11.47
2019-04-05T08:22:32.295Z,10.53
2019-04-05T08:25:00.055Z,10.17
2019-04-05T08:27:27.905Z,10.30
2019-04-05T08:29:55.779Z,10.53
2019-04-05T08:32:23.703Z,10.33
2019-04-05T08:34:51.597Z,9.43
2019-04-05T08:37:19.665Z,10.73
2019-04-05T08:39:47.681Z,9.90
2019-04-05T08:42:15.638Z,10.47
2019-04-05T08:44:43.432Z,10.30
2019-04-05T08:47:11.823Z,9.83
2019-04-05T08:49:39.595Z,9.97
2019-04-05T08:52:07.652Z,10.70
2019-04-05T08:54:36.972Z,9.87
2019-04-05T08:57:05.603Z,10.10
2019-04-05T08:59:33.586Z,9.50
2019-04-05T09:02:01.629Z,9.77
2019-04-05T09:04:29.471Z,10.20
2019-04-05T09:06:57.661Z,10.07
2019-04-05T09:09:25.517Z,10.83
2019-04-05T09:11:54.051Z,10.13
2019-04-05T09:14:21.921Z,10.57
2019-04-05T09:16:49.869Z,10.63
2019-04-05T09:19:23.408Z,10.03
2019-04-05T09:21:47.493Z,9.90
2019-04-05T09:24:15.394Z,10.07
2019-04-05T09:26:43.290Z,10.33
2019-04-05T09:29:11.137Z,9.50
2019-04-05T09:31:39.028Z,9.67
2019-04-05T09:34:06.881Z,9.67
2019-04-05T09:36:34.855Z,10.03
2019-04-05T09:39:05.554Z,9.67
2019-04-05T09:41:35.331Z,9.93
2019-04-05T09:44:03.361Z,10.03
2019-04-05T09:46:31.141Z,9.23
2019-04-05T09:48:59.168Z,9.30
2019-04-05T09:51:27.022Z,9.33
2019-04-05T09:53:55.064Z,8.97
2019-04-05T09:56:22.858Z,8.67
2019-04-05T09:58:50.703Z,8.23
2019-04-05T10:01:20.109Z,8.27
2019-04-05T10:03:48.134Z,8.90
2019-04-05T10:06:16.103Z,8.90
2019-04-05T10:08:43.921Z,8.50
2019-04-05T10:11:11.695Z,7.33
2019-04-05T10:13:46.363Z,7.17
2019-04-05T10:16:14.133Z,7.20
2019-04-05T10:18:42.059Z,7.43
2019-04-05T10:21:10.046Z,7.73
2019-04-05T10:23:38.162Z,7.43
2019-04-05T10:26:06.225Z,7.07
2019-04-05T10:28:34.140Z,6.83
2019-04-05T10:31:02.030Z,6.90
2019-04-05T10:33:30.065Z,6.57
2019-04-05T10:35:57.938Z,7.30
2019-04-05T10:38:26.021Z,6.57
2019-04-05T10:40:53.993Z,6.40
2019-04-05T10:43:21.909Z,6.77
2019-04-05T10:45:50.583Z,6.63
2019-04-05T10:48:18.525Z,6.43
2019-04-05T10:50:48.313Z,6.63
2019-04-05T10:53:16.128Z,6.27
2019-04-05T10:55:43.891Z,7.07
2019-04-05T10:58:11.954Z,6.77
2019-04-05T11:00:39.930Z,6.13
2019-04-05T11:03:07.877Z,6.20
2019-04-05T11:05:37.165Z,5.50
2019-04-05T11:08:05.431Z,6.30
2019-04-05T11:10:33.308Z,5.97
2019-04-05T11:13:01.852Z,5.30
2019-04-05T11:15:31.037Z,4.77
2019-04-05T11:17:59.333Z,4.53
2019-04-05T11:20:27.188Z,5.60
2019-04-05T11:22:54.971Z,5.47
2019-04-05T11:25:23.075Z,4.73
2019-04-05T11:27:50.840Z,5.03
2019-04-05T11:30:40.459Z,5.30
2019-04-05T11:33:08.403Z,10.40
2019-04-05T11:35:36.710Z,5.47
2019-04-05T11:38:04.796Z,5.20
2019-04-05T11:40:33.112Z,5.03
2019-04-05T11:43:02.861Z,4.93
2019-04-05T11:45:32.636Z,5.00
2019-04-05T11:48:02.471Z,4.73
2019-04-05T11:50:34.671Z,4.97
2019-04-05T11:53:00.492Z,5.30
2019-04-05T11:55:28.434Z,4.53
2019-04-05T11:57:56.346Z,5.10
2019-04-05T12:00:33.233Z,4.63
2019-04-05T12:03:04.118Z,4.97
2019-04-05T12:05:32.191Z,4.93
2019-04-05T12:08:01.859Z,6.30
2019-04-05T12:10:31.978Z,5.30
2019-04-05T12:12:59.530Z,5.40
2019-04-05T12:15:27.876Z,4.50
2019-04-05T12:18:04.633Z,5.10
2019-04-05T12:20:33.258Z,5.10
2019-04-05T12:23:01.567Z,5.10
2019-04-05T12:25:29.377Z,5.10
2019-04-05T12:28:06.250Z,5.27
2019-04-05T12:30:27.562Z,5.27
2019-04-05T12:32:55.452Z,5.63
2019-04-05T12:35:23.290Z,5.57
2019-04-05T12:37:55.463Z,6.10
2019-04-05T12:40:20.832Z,6.27
2019-04-05T12:42:48.684Z,5.60
2019-04-05T12:45:16.708Z,6.60
2019-04-05T12:47:45.704Z,6.70
2019-04-05T12:50:15.328Z,6.30
2019-04-05T12:52:43.430Z,6.27
2019-04-05T12:55:11.543Z,5.43
2019-04-05T12:57:39.420Z,5.50
2019-04-05T13:00:12.978Z,6.40
2019-04-05T13:02:39.217Z,5.93
2019-04-05T13:05:07.129Z,6.30
2019-04-05T13:07:35.468Z,6.13
2019-04-05T13:10:04.163Z,6.20
2019-04-05T13:12:32.195Z,6.00
2019-04-05T13:15:11.624Z,6.00
2019-04-05T13:17:31.204Z,5.87
2019-04-05T13:20:11.024Z,4.97
2019-04-05T13:22:40.732Z,5.37
2019-04-05T13:25:11.096Z,5.33
2019-04-05T13:27:41.312Z,5.33
2019-04-05T13:30:08.580Z,5.83
2019-04-05T13:32:36.341Z,5.60
2019-04-05T13:35:04.928Z,7.17
2019-04-05T13:37:32.779Z,5.57
2019-04-05T13:40:00.756Z,4.37
2019-04-05T13:42:31.231Z,4.27
2019-04-05T13:44:58.359Z,4.67
2019-04-05T13:47:26.146Z,4.80
2019-04-05T13:49:54.064Z,4.90
2019-04-05T13:52:22.030Z,4.20
2019-04-05T13:54:49.976Z,4.30
2019-04-05T13:57:18.469Z,4.20
2019-04-05T13:59:46.277Z,4.60
2019-04-05T14:02:14.309Z,5.10
2019-04-05T14:04:42.121Z,4.03
2019-04-05T14:07:10.135Z,4.67
2019-04-05T14:09:38.467Z,4.60
2019-04-05T14:12:09.508Z,4.47
2019-04-05T14:14:39.389Z,4.40
2019-04-05T14:17:08.259Z,4.70
2019-04-05T14:19:36.253Z,4.90
2019-04-05T14:22:08.819Z,4.77
2019-04-05T14:24:36.281Z,4.40
2019-04-05T14:27:04.415Z,5.17
2019-04-05T14:29:33.349Z,4.93
2019-04-05T14:32:19.463Z,5.23
2019-04-05T14:34:31.846Z,5.07
2019-04-05T14:36:59.782Z,4.87
2019-04-05T14:39:27.593Z,5.53
2019-04-05T14:41:55.500Z,5.03
2019-04-05T14:44:23.399Z,4.93
2019-04-05T14:46:51.410Z,5.30
2019-04-05T14:49:19.242Z,5.40
2019-04-05T14:51:53.733Z,5.40
2019-04-05T14:54:16.843Z,6.43
2019-04-05T14:56:44.666Z,7.17
2019-04-05T14:59:12.420Z,7.27
2019-04-05T15:01:40.340Z,7.60
2019-04-05T15:04:08.122Z,6.87
2019-04-05T15:06:36.125Z,8.27
2019-04-05T15:09:05.498Z,7.17
2019-04-05T15:11:33.519Z,7.13
2019-04-05T15:14:01.496Z,7.07
2019-04-05T15:16:29.421Z,6.80
2019-04-05T15:18:57.278Z,7.30
2019-04-05T15:21:25.194Z,7.90
2019-04-05T15:23:53.052Z,6.70
2019-04-05T15:26:21.508Z,7.53
2019-04-05T15:28:49.526Z,6.77
2019-04-05T15:31:17.338Z,6.90
2019-04-05T15:33:45.114Z,6.90
2019-04-05T15:36:12.950Z,7.13
2019-04-05T15:38:40.913Z,7.57
2019-04-05T15:41:08.910Z,6.77
2019-04-05T15:43:36.771Z,7.10
2019-04-05T15:46:04.846Z,6.07
2019-04-05T15:48:32.704Z,6.30
2019-04-05T15:51:00.592Z,6.97
2019-04-05T15:53:32.164Z,7.03
2019-04-05T15:56:05.091Z,6.83
2019-04-05T15:58:34.094Z,6.30
2019-04-05T16:01:04.411Z,6.07
2019-04-05T16:03:33.288Z,7.07
2019-04-05T16:06:01.265Z,6.77
2019-04-05T16:08:29.333Z,8.43
2019-04-05T16:10:57.437Z,6.00
2019-04-05T16:13:25.247Z,7.97
2019-04-05T16:15:53.107Z,6.60
2019-04-05T16:18:21.032Z,6.50
2019-04-05T16:20:48.900Z,6.57
2019-04-05T16:23:16.938Z,6.27
2019-04-05T16:25:44.798Z,9.03
2019-04-05T16:28:12.720Z,10.57
2019-04-05T16:30:40.597Z,7.30
2019-04-05T16:33:08.514Z,12.67
2019-04-05T16:35:36.265Z,14.67
2019-04-05T16:38:04.512Z,7.60
2019-04-05T16:40:32.461Z,7.70
2019-04-05T16:43:02.585Z,7.27
2019-04-05T16:45:30.285Z,7.80
2019-04-05T16:47:58.109Z,9.43
2019-04-05T16:50:26.077Z,8.83
2019-04-05T16:52:54.005Z,13.47
2019-04-05T16:55:21.962Z,7.87
2019-04-05T16:57:49.891Z,14.77
2019-04-05T17:00:18.269Z,6.90
2019-04-05T17:02:46.180Z,5.57
2019-04-05T17:05:16.897Z,6.03
2019-04-05T17:07:44.836Z,6.33
2019-04-05T17:10:13.580Z,7.50
2019-04-05T17:12:42.823Z,7.80
2019-04-05T17:15:13.485Z,6.47
2019-04-05T17:17:41.500Z,6.07
2019-04-05T17:20:09.688Z,6.80
2019-04-05T17:22:37.655Z,9.10
2019-04-05T17:25:05.601Z,13.77
2019-04-05T17:27:33.579Z,31.37
2019-04-05T17:30:01.502Z,24.93
2019-04-05T17:32:29.349Z,19.07
2019-04-05T17:34:57.178Z,13.97
2019-04-05T17:37:26.770Z,14.17
2019-04-05T17:39:55.428Z,11.83
2019-04-05T17:42:23.304Z,8.53
2019-04-05T17:44:53.597Z,8.07
2019-04-05T17:47:21.549Z,7.67
2019-04-05T17:49:49.656Z,8.00
2019-04-05T17:52:17.513Z,8.90
2019-04-05T17:54:45.582Z,8.20
2019-04-05T17:57:13.770Z,9.10
2019-04-05T17:59:41.799Z,9.47
2019-04-05T18:02:09.804Z,10.23
2019-04-05T18:04:37.624Z,11.27
2019-04-05T18:07:05.629Z,11.17
2019-04-05T18:09:33.557Z,11.17
2019-04-05T18:12:01.574Z,11.07
2019-04-05T18:14:29.490Z,11.50
2019-04-05T18:16:57.261Z,12.70
2019-04-05T18:19:25.322Z,14.13
2019-04-05T18:21:53.494Z,13.43
2019-04-05T18:24:21.382Z,12.20
2019-04-05T18:26:51.469Z,12.00
2019-04-05T18:29:19.418Z,10.30
2019-04-05T18:31:49.374Z,10.60
2019-04-05T18:34:17.460Z,9.90
2019-04-05T18:36:46.047Z,10.37
2019-04-05T18:39:15.212Z,11.47
2019-04-05T18:41:43.217Z,12.87
2019-04-05T18:44:11.381Z,13.07
2019-04-05T18:46:39.359Z,11.90
2019-04-05T18:49:07.313Z,11.40
2019-04-05T18:51:35.197Z,10.23
2019-04-05T18:54:03.423Z,9.47
2019-04-05T18:56:31.380Z,9.10
2019-04-05T18:58:59.332Z,10.53
2019-04-05T19:01:29.547Z,12.27
2019-04-05T19:03:58.486Z,15.50
2019-04-05T19:06:26.567Z,14.43
2019-04-05T19:08:54.509Z,15.13
2019-04-05T19:11:22.493Z,14.40
2019-04-05T19:14:00.507Z,16.03
2019-04-05T19:16:20.138Z,14.33
2019-04-05T19:18:48.071Z,15.83
2019-04-05T19:21:15.935Z,15.90
2019-04-05T19:23:50.734Z,18.30
2019-04-05T19:26:13.904Z,12.33
2019-04-05T19:28:41.839Z,10.97
2019-04-05T19:48:41.395Z,7.90
2019-04-05T19:51:09.495Z,7.30
2019-04-05T19:53:37.479Z,8.27
2019-04-05T19:56:05.494Z,7.27
2019-04-05T19:58:34.135Z,7.67
2019-04-05T20:01:02.357Z,8.50
2019-04-05T20:03:31.375Z,8.30
2019-04-05T20:05:59.210Z,8.40
2019-04-05T20:08:27.167Z,8.97
2019-04-05T20:10:55.271Z,7.97
2019-04-05T20:13:23.184Z,8.87
2019-04-05T20:15:51.111Z,8.07
2019-04-05T20:18:19.326Z,8.10
2019-04-05T20:20:47.261Z,8.13
2019-04-05T20:23:15.203Z,8.90
2019-04-05T20:25:43.270Z,8.33
2019-04-05T20:28:13.140Z,10.73
2019-04-05T20:30:41.062Z,9.43
2019-04-05T20:33:09.262Z,9.80
2019-04-05T20:35:39.309Z,12.43
2019-04-05T20:38:07.560Z,12.63
2019-04-05T20:40:35.752Z,13.13
2019-04-05T20:43:03.869Z,14.43
2019-04-05T20:45:31.932Z,13.50
2019-04-05T20:48:00.141Z,13.50
2019-04-05T20:50:28.080Z,16.57
2019-04-05T20:52:55.955Z,14.50
2019-04-05T20:55:23.828Z,14.07
2019-04-05T20:57:51.612Z,14.37
2019-04-05T21:00:19.688Z,15.27
2019-04-05T21:02:48.833Z,14.90
2019-04-05T21:05:25.296Z,14.83
2019-04-05T21:07:47.656Z,15.50
2019-04-05T21:10:15.783Z,16.30
2019-04-05T21:12:43.901Z,15.70
2019-04-05T21:15:13.586Z,15.67
2019-04-05T21:17:43.173Z,16.40
2019-04-05T21:20:11.875Z,16.00
2019-04-05T21:22:41.877Z,16.70
2019-04-05T21:25:10.855Z,15.87
2019-04-05T21:27:39.489Z,17.00
2019-04-05T21:30:08.175Z,16.90
2019-04-05T21:32:39.689Z,16.20
2019-04-05T21:35:08.700Z,17.37
2019-04-05T21:37:36.946Z,16.43
2019-04-05T21:40:06.395Z,16.33
2019-04-05T21:42:34.636Z,17.47
2019-04-05T21:45:02.928Z,16.20
2019-04-05T21:47:30.813Z,17.13
2019-04-05T21:49:58.726Z,16.43
2019-04-05T21:52:27.442Z,16.67
2019-04-05T21:54:55.432Z,17.77
2019-04-05T21:57:42.897Z,17.80
2019-04-05T22:00:22.302Z,16.77
2019-04-05T22:02:50.271Z,17.70
2019-04-05T22:05:18.286Z,16.47
2019-04-05T22:07:46.260Z,15.90
2019-04-05T22:10:14.282Z,15.37
2019-04-05T22:12:44.270Z,16.00
2019-04-05T22:15:12.557Z,14.93
2019-04-05T22:17:40.964Z,14.93
2019-04-05T22:20:09.009Z,14.30
2019-04-05T22:22:36.938Z,15.37
2019-04-05T22:25:06.122Z,14.00
2019-04-05T22:27:34.388Z,14.63
2019-04-05T22:30:02.887Z,14.43
2019-04-05T22:32:30.740Z,15.47
2019-04-05T22:34:58.620Z,13.83
2019-04-05T22:37:26.670Z,14.47
2019-04-05T22:39:57.751Z,14.73
2019-04-05T22:42:25.719Z,15.23
2019-04-05T22:44:53.708Z,14.43
2019-04-05T22:47:21.728Z,14.27
2019-04-05T22:49:49.513Z,15.03
2019-04-05T22:52:17.395Z,15.40
2019-04-05T22:54:45.228Z,14.83
2019-04-05T22:57:13.152Z,14.83
2019-04-05T22:59:41.051Z,14.53
2019-04-05T23:02:08.888Z,16.07
2019-04-05T23:04:36.759Z,17.17
2019-04-05T23:07:04.590Z,18.30
2019-04-05T23:09:32.494Z,19.07
2019-04-05T23:12:00.398Z,17.73
2019-04-05T23:14:28.313Z,16.20
2019-04-05T23:16:56.630Z,15.23
2019-04-05T23:19:24.504Z,17.00
2019-04-05T23:21:52.337Z,15.93
2019-04-05T23:24:20.208Z,14.87
2019-04-05T23:26:48.113Z,14.83
2019-04-05T23:29:15.899Z,13.50
2019-04-05T23:31:43.824Z,14.57
2019-04-05T23:34:11.714Z,15.33
2019-04-05T23:36:39.714Z,15.83
2019-04-05T23:39:07.777Z,15.03
2019-04-05T23:41:35.739Z,16.10
2019-04-05T23:44:03.764Z,14.83
2019-04-05T23:46:31.697Z,15.20
2019-04-05T23:49:00.136Z,16.80
2019-04-05T23:51:27.920Z,17.73
2019-04-05T23:53:55.896Z,16.57
2019-04-05T23:56:23.674Z,15.33
2019-04-05T23:58:51.710Z,15.53
